createdAt,value
2018-06-05T00:03:38.812Z,96387.75
2018-06-05T00:08:33.365Z,96392.28
2018-06-05T00:13:27.894Z,96387.25
2018-06-05T00:18:22.438Z,96390.63
2018-06-05T00:23:16.958Z,96401.86
2018-06-05T00:28:11.496Z,96400.72
2018-06-05T00:33:06.101Z,96407.00
2018-06-05T00:38:00.660Z,96405.98
2018-06-05T00:42:55.186Z,96404.61
2018-06-05T00:47:49.708Z,96414.69
2018-06-05T00:52:44.241Z,96417.73
2018-06-05T00:57:38.802Z,96430.83
2018-06-05T01:02:33.334Z,96430.55
2018-06-05T01:07:27.868Z,96432.36
2018-06-05T01:12:22.393Z,96430.96
2018-06-05T01:17:16.930Z,96436.78
2018-06-05T01:22:11.459Z,96441.94
2018-06-05T01:27:06.090Z,96441.59
2018-06-05T01:32:00.633Z,96441.24
2018-06-05T01:36:54.892Z,96443.55
2018-06-05T01:41:49.404Z,96455.03
2018-06-05T01:46:43.999Z,96451.59
2018-06-05T01:51:38.523Z,96449.22
2018-06-05T01:56:33.130Z,96445.73
2018-06-05T02:01:27.666Z,96450.25
2018-06-05T02:06:22.191Z,96450.66
2018-06-05T02:11:16.955Z,96452.20
2018-06-05T02:16:11.489Z,96449.98
2018-06-05T02:21:06.023Z,96451.98
2018-06-05T02:26:00.545Z,96460.98
2018-06-05T02:30:55.206Z,96458.27
2018-06-05T02:35:49.818Z,96466.14
2018-06-05T02:40:44.349Z,96458.42
2018-06-05T02:45:38.894Z,96458.89
2018-06-05T02:50:33.446Z,96464.17
2018-06-05T02:55:28.018Z,96464.86
2018-06-05T03:00:22.549Z,96469.91
2018-06-05T03:05:17.104Z,96466.27
2018-06-05T03:10:11.640Z,96463.88
2018-06-05T03:15:06.482Z,96466.75
2018-06-05T03:20:01.014Z,96469.12
2018-06-05T03:24:55.592Z,96465.85
2018-06-05T03:29:49.822Z,96467.29
2018-06-05T03:34:44.871Z,96474.84
2018-06-05T03:39:39.433Z,96476.50
2018-06-05T03:44:33.955Z,96484.34
2018-06-05T03:49:28.532Z,96483.83
2018-06-05T03:54:23.021Z,96494.16
2018-06-05T03:59:17.607Z,96499.25
2018-06-05T04:04:12.151Z,96497.10
2018-06-05T04:09:06.859Z,96494.95
2018-06-05T04:14:01.393Z,96498.46
2018-06-05T04:18:55.931Z,96496.73
2018-06-05T04:23:50.499Z,96504.20
2018-06-05T04:28:45.065Z,96503.33
2018-06-05T04:33:39.595Z,96506.59
2018-06-05T04:38:34.147Z,96512.82
2018-06-05T04:43:28.673Z,96515.95
2018-06-05T04:48:23.206Z,96520.40
2018-06-05T04:53:17.819Z,96517.31
2018-06-05T04:58:12.354Z,96519.91
2018-06-05T05:03:07.098Z,96524.00
2018-06-05T05:08:01.640Z,96524.57
2018-06-05T05:12:56.181Z,96522.56
2018-06-05T05:17:50.783Z,96526.77
2018-06-05T05:22:45.327Z,96519.59
2018-06-05T05:27:40.194Z,96525.84
2018-06-05T05:32:34.714Z,96528.31
2018-06-05T05:37:29.250Z,96531.84
2018-06-05T05:42:23.795Z,96530.52
2018-06-05T05:47:18.332Z,96538.98
2018-06-05T05:52:12.869Z,96536.65
2018-06-05T05:57:07.451Z,96538.58
2018-06-05T06:02:02.011Z,96538.12
2018-06-05T06:06:56.546Z,96541.69
2018-06-05T06:11:51.120Z,96549.06
2018-06-05T06:16:45.354Z,96544.80
2018-06-05T06:21:40.165Z,96543.36
2018-06-05T06:26:34.711Z,96539.95
2018-06-05T06:31:29.296Z,96540.34
2018-06-05T06:36:23.847Z,96545.90
2018-06-05T06:41:18.626Z,96547.26
2018-06-05T06:46:13.199Z,96553.55
2018-06-05T06:51:07.762Z,96548.04
2018-06-05T06:56:02.358Z,96555.41
2018-06-05T07:00:56.909Z,96558.41
2018-06-05T07:05:51.499Z,96551.67
2018-06-05T07:10:46.008Z,96550.88
2018-06-05T07:15:40.594Z,96551.08
2018-06-05T07:20:35.125Z,96540.27
2018-06-05T07:25:29.703Z,96544.14
2018-06-05T07:30:24.304Z,96539.65
2018-06-05T07:35:18.899Z,96539.66
2018-06-05T07:40:13.458Z,96537.58
2018-06-05T07:45:08.011Z,96533.03
2018-06-05T07:50:02.656Z,96538.89
2018-06-05T07:54:57.156Z,96527.34
2018-06-05T07:59:51.779Z,96530.07
2018-06-05T08:04:46.351Z,96530.75
2018-06-05T08:09:40.964Z,96534.30
2018-06-05T08:14:35.527Z,96527.89
2018-06-05T08:19:30.072Z,96529.33
2018-06-05T08:24:24.629Z,96527.67
2018-06-05T08:29:20.390Z,96528.13
2018-06-05T08:34:15.064Z,96530.66
2018-06-05T08:39:09.863Z,96524.23
2018-06-05T08:44:04.633Z,96519.02
2018-06-05T08:48:59.183Z,96521.23
2018-06-05T08:53:53.454Z,96527.71
2018-06-05T08:58:47.989Z,96522.74
2018-06-05T09:03:43.464Z,96531.94
2018-06-05T09:08:37.997Z,96522.23
2018-06-05T09:13:32.570Z,96528.13
2018-06-05T09:18:27.224Z,96530.41
2018-06-05T09:23:21.747Z,96534.36
2018-06-05T09:28:16.300Z,96526.41
2018-06-05T09:33:10.950Z,96525.36
2018-06-05T09:38:05.574Z,96521.41
2018-06-05T09:43:00.119Z,96520.09
2018-06-05T09:47:54.701Z,96516.70
2018-06-05T09:52:49.280Z,96515.55
2018-06-05T09:57:43.862Z,96515.38
2018-06-05T10:02:38.367Z,96511.05
2018-06-05T10:07:32.895Z,96510.13
2018-06-05T10:12:27.441Z,96506.59
2018-06-05T10:17:21.954Z,96505.91
2018-06-05T10:22:16.553Z,96499.83
2018-06-05T10:27:11.085Z,96496.05
2018-06-05T10:32:05.918Z,96499.89
2018-06-05T10:37:00.514Z,96495.78
2018-06-05T10:41:55.072Z,96486.70
2018-06-05T10:46:49.669Z,96482.00
2018-06-05T10:51:44.257Z,96479.64
2018-06-05T10:56:38.871Z,96477.03
2018-06-05T11:01:33.437Z,96476.69
2018-06-05T11:06:28.039Z,96473.25
2018-06-05T11:11:22.673Z,96467.16
2018-06-05T11:16:17.222Z,96458.84
2018-06-05T11:21:11.778Z,96462.20
2018-06-05T11:26:06.362Z,96455.94
2018-06-05T11:31:00.902Z,96443.66
2018-06-05T11:35:55.471Z,96445.61
2018-06-05T11:40:50.061Z,96439.13
2018-06-05T11:45:44.567Z,96428.86
2018-06-05T11:50:39.141Z,96420.43
2018-06-05T11:55:33.730Z,96420.36
2018-06-05T12:00:28.376Z,96414.74
2018-06-05T12:05:22.928Z,96408.38
2018-06-05T12:10:17.546Z,96406.88
2018-06-05T12:15:12.083Z,96398.22
2018-06-05T12:20:06.713Z,96382.09
2018-06-05T12:25:01.340Z,96374.83
2018-06-05T12:29:55.959Z,96363.77
2018-06-05T12:34:50.538Z,96358.51
2018-06-05T12:39:45.126Z,96346.27
2018-06-05T12:44:39.728Z,96340.59
2018-06-05T12:49:34.297Z,96333.28
2018-06-05T12:54:28.954Z,96328.23
2018-06-05T12:59:23.190Z,96313.15
2018-06-05T13:04:18.002Z,96308.77
2018-06-05T13:09:12.542Z,96307.80
2018-06-05T13:14:07.147Z,96301.62
2018-06-05T13:19:01.799Z,96298.33
2018-06-05T13:23:56.407Z,96289.58
2018-06-05T13:28:51.915Z,96281.17
2018-06-05T13:33:46.588Z,96270.05
2018-06-05T13:38:41.238Z,96273.31
2018-06-05T13:43:35.845Z,96262.52
2018-06-05T13:48:30.498Z,96260.48
2018-06-05T13:53:25.152Z,96255.55
2018-06-05T13:58:19.817Z,96259.97
2018-06-05T14:03:16.533Z,96242.18
2018-06-05T14:08:11.167Z,96241.06
2018-06-05T14:13:05.752Z,96236.98
2018-06-05T14:18:00.429Z,96225.88
2018-06-05T14:22:55.079Z,96232.99
2018-06-05T14:27:49.679Z,96223.02
2018-06-05T14:32:44.271Z,96229.91
2018-06-05T14:37:38.931Z,96225.98
2018-06-05T14:42:33.514Z,96222.31
2018-06-05T14:47:28.147Z,96222.25
2018-06-05T14:52:22.734Z,96210.53
2018-06-05T14:57:17.415Z,96206.94
2018-06-05T15:02:12.018Z,96207.22
2018-06-05T15:07:06.806Z,96205.37
2018-06-05T15:12:01.425Z,96202.50
2018-06-05T15:16:56.050Z,96203.31
2018-06-05T15:21:50.727Z,96200.64
2018-06-05T15:26:45.375Z,96201.94
2018-06-05T15:31:39.987Z,96194.39
2018-06-05T15:36:34.610Z,96193.72
2018-06-05T15:41:29.219Z,96190.69
2018-06-05T15:46:23.766Z,96193.53
2018-06-05T15:51:18.355Z,96184.42
2018-06-05T15:56:12.963Z,96185.59
2018-06-05T16:01:07.567Z,96182.31
2018-06-05T16:06:02.177Z,96185.42
2018-06-05T16:10:56.824Z,96183.01
2018-06-05T16:15:51.399Z,96190.31
2018-06-05T16:20:45.981Z,96185.50
2018-06-05T16:25:40.606Z,96187.48
2018-06-05T16:30:35.268Z,96191.64
2018-06-05T16:35:30.979Z,96186.94
2018-06-05T16:40:25.591Z,96184.42
2018-06-05T16:45:20.158Z,96188.25
2018-06-05T16:50:14.711Z,96195.36
2018-06-05T16:55:09.331Z,96202.30
2018-06-05T17:00:03.978Z,96199.16
2018-06-05T17:04:58.568Z,96195.48
2018-06-05T17:09:53.122Z,96201.48
2018-06-05T17:14:47.747Z,96195.56
2018-06-05T17:19:42.384Z,96198.48
2018-06-05T17:24:36.987Z,96196.02
2018-06-05T17:29:31.569Z,96197.34
2018-06-05T17:34:26.142Z,96200.87
2018-06-05T17:39:20.730Z,96197.72
2018-06-05T17:44:17.181Z,96206.54
2018-06-05T17:49:11.747Z,96210.66
2018-06-05T17:54:06.457Z,96219.38
2018-06-05T17:59:01.066Z,96216.95
2018-06-05T18:03:55.764Z,96227.95
2018-06-05T18:08:50.263Z,96233.59
2018-06-05T18:13:44.824Z,96232.70
2018-06-05T18:18:39.412Z,96230.70
2018-06-05T18:23:34.004Z,96232.92
2018-06-05T18:28:28.583Z,96237.63
2018-06-05T18:33:23.230Z,96244.30
2018-06-05T18:38:17.989Z,96248.23
2018-06-05T18:43:12.594Z,96252.96
2018-06-05T18:48:07.267Z,96249.70
2018-06-05T18:53:01.836Z,96256.17
2018-06-05T18:57:56.441Z,96259.28
2018-06-05T19:02:51.119Z,96270.47
2018-06-05T19:07:45.728Z,96272.84
2018-06-05T19:12:40.351Z,96277.88
2018-06-05T19:17:34.991Z,96286.66
2018-06-05T19:22:29.542Z,96296.98
2018-06-05T19:27:24.116Z,96311.16
2018-06-05T19:32:18.760Z,96327.47
2018-06-05T19:37:13.401Z,96323.30
2018-06-05T19:42:08.106Z,96320.45
2018-06-05T19:47:02.677Z,96324.99
2018-06-05T19:51:57.262Z,96334.52
2018-06-05T19:56:51.911Z,96342.12
2018-06-05T20:01:46.530Z,96342.87
2018-06-05T20:06:41.230Z,96345.21
2018-06-05T20:11:35.955Z,96345.44
2018-06-05T20:16:30.622Z,96353.13
2018-06-05T20:21:25.225Z,96349.15
2018-06-05T20:26:19.906Z,96348.42
2018-06-05T20:31:14.515Z,96340.58
2018-06-05T20:36:09.237Z,96343.62
2018-06-05T20:41:03.915Z,96347.27
2018-06-05T20:45:58.532Z,96344.88
2018-06-05T20:50:53.247Z,96347.22
2018-06-05T20:55:47.950Z,96354.97
2018-06-05T21:00:43.630Z,96352.62
2018-06-05T21:05:38.292Z,96365.79
2018-06-05T21:10:32.996Z,96363.23
2018-06-05T21:15:27.619Z,96359.76
2018-06-05T21:20:21.943Z,96357.28
2018-06-05T21:25:16.551Z,96348.33
2018-06-05T21:30:11.156Z,96350.17
2018-06-05T21:35:05.820Z,96347.42
2018-06-05T21:40:00.415Z,96352.34
2018-06-05T21:44:55.064Z,96352.66
2018-06-05T21:49:49.726Z,96351.33
2018-06-05T21:54:44.471Z,96352.87
2018-06-05T21:59:39.059Z,96357.80
2018-06-05T22:04:33.671Z,96372.78
2018-06-05T22:09:28.259Z,96369.72
2018-06-05T22:14:22.874Z,96380.59
2018-06-05T22:24:14.394Z,96388.48
2018-06-05T22:29:08.989Z,96387.02
2018-06-05T22:34:03.589Z,96384.11
2018-06-05T22:38:57.847Z,96386.63
2018-06-05T22:43:52.439Z,96393.43
2018-06-05T22:48:47.001Z,96394.25
2018-06-05T22:53:41.592Z,96394.72
2018-06-05T22:58:36.196Z,96394.85
2018-06-05T23:03:30.779Z,96393.43
2018-06-05T23:08:25.392Z,96387.27
2018-06-05T23:13:19.980Z,96390.23
2018-06-05T23:18:14.534Z,96387.45
2018-06-05T23:23:09.081Z,96380.69
2018-06-05T23:28:03.707Z,96374.34
2018-06-05T23:32:58.313Z,96368.88
2018-06-05T23:37:52.875Z,96367.94
2018-06-05T23:42:47.428Z,96363.70
2018-06-05T23:47:41.987Z,96354.61
2018-06-05T23:52:36.558Z,96361.02
2018-06-05T23:57:31.123Z,96363.83
